Airfield :
LOGIN :

Register | Disclaimer

   EN    FR    IT 

 










Legend :    VFR   Marginal VFR   IFR   Intensive IFR   Very Intensive IFR
Visi :
Ceiling :
>= 8 km
>= 3000ft
5 to 8 km
1000 to 3000 ft
1500m to 5 km
500 to 1000 ft
800 to 1500m
200 to 500 ft
< 800m
< 200 ft
Symbols :   Thunderstorms  Fog  Heavy snow  Heavy precipitations  Wind > 20 kt
SIGMETs :     Misc.  Thunderstorms  Icing  Turbulence  Mountain Waves  Volcanic Ashes






- Airport Elevation : 33 ft
- IATA code : MHZ


EGUN - RAF Mildenhall

CURRENT METAR :
  • 280456Z AUTO 00000KT 9999 CLR 08/08 A3060 RMK AO2 SLP365 T00780078 $

EXPIRED METARs :
  • 280356Z AUTO 00000KT 9999 CLR 07/07 A3060 RMK AO2 SLP365 T00730073 $
  • 280256Z AUTO 07004KT 9999 CLR 08/08 A3060 RMK AO2 SLP365 T00800080 $

TAF TAF EGUN
Valid from the 28 at 04:00 until the 29 at 10:00 UTC


280400Z 2804/2910 11006KT 9999 FEW030 QNH3058INS
BECMG 2808/2809 13010G15KT 9999 FEW030 QNH3048INS
BECMG 2820/2821 12009KT 9999 FEW060 QNH3046INS
BECMG 2902/2903 11009KT 8000 BR FEW050 QNH3044INS
BECMG 2907/2908 10012KT 9999 NSW FEW050 QNH3042INS TX20/2814Z TN08/2804Z



MET'MAP, your aeronautical weather chart ! - Copyright ORBIFLY December 2007 - Disclaimer

ORBIFLY MET'MAP TEAM :

Programming & Development : Alexandra Zaïnal
Concept & original design : Baudouin d'Aumeries
Assistance for programming : Marc-Olivier Méhu
Technical & hardware support : Manuel Goepfert

Contact : metmap@orbifly.com




SOURCES & CREDITS :

   NOAA